VVPQVVTS

Guest
Details From VVPQ - PHU QUOC
To VVTS - TAN SON NHAT INTL
Flight Number -
Tags decoded
Created
Modified
Stats Distance 162 nm / 301 km
Max Altitude 0 ft / 0 m
Waypoints 2
Social Downloads 0
Likes 0
Share VATSIM

Download

Looking for another format? Having issues loading an existing format? Contact us
Advertisement - Login to hide

Notes

Requested: VVPQ TUNPO VVTS Unmatched points: TUNPO

Route

VVPQ VVTS

ID Type Via Altitude Latitude Longitude Leg Dist Tot Dist Heading (true) Name
O VVPQ APT - 0 ft / 0 m 10.22703˚ 103.96717˚ - 0 nm - PHU QUOC
O VVTS APT - 0 ft / 0 m 10.81875˚ 106.65173˚ 162 nm 162 nm 77° / 78° TAN SON NHAT INTL

Altitude Profile

Advertisement - Login to hide

Weather


0- 5 10 15 20 25 30 35+ Temperature / ° C

Clouds and Precipitation
Forecast for 2017-12-11 06:00 UTC. Updated an hour ago

Ground ~20,000 ft ~40,000 ft Winds

VVPQ

Details ICAO VVPQ
Name PHU QUOC
Region Vietnam
Timezone Asia/Ho_Chi_Minh (UTC+7.0)
Stats Elevation 23 ft / 7 m (AMSL)
Location 10.227026° 103.967171°
Runways 1
Magnetic Variation 0.365° W

METAR

VVPQ 110400Z 09009KT 050V110 CAVOK 28/19 Q1014 NOSIG

Decode

TAF

TAF VVPQ 102300Z 1100/1124 09006KT 9999 SCT017

Decode

Departure Runways

ID Width Length Bearing (true) Bearing (mag) Surface Threshold Offset Overrun Length
08 95 ft / 29 m 6,897 ft / 2,102 m 79.09° 79.46° Asphalt 0 ft / 0 m 0 ft / 0 m
26 95 ft / 29 m 6,897 ft / 2,102 m 259.10° 259.47° Asphalt 0 ft / 0 m 0 ft / 0 m

VVTS

Details ICAO VVTS (SGN)
Name TAN SON NHAT INTL
Region Vietnam
Timezone Asia/Ho_Chi_Minh (UTC+7.0)
Stats Elevation 33 ft / 10 m (AMSL)
Location 10.818750° 106.651735°
Runways 2
Magnetic Variation 0.487° W

METAR

VVTS 110400Z 15004KT 090V200 8000 SCT017 31/21 Q1012 NOSIG

Decode

TAF

TAF VVTS 102300Z 1100/1206 VRB03KT 5000 BR SCT017 SCT050 BECMG 1101/1102 05010KT 9999 NSW TEMPO 1108/1112 TS SCT015 FEW017CB

Decode

Destination Runways

ID Width Length Bearing (true) Bearing (mag) Surface Threshold Offset Overrun Length
07L 148 ft / 45 m 9,998 ft / 3,047 m 69.00° 69.49° Asphalt 0 ft / 0 m 1,040 ft / 317 m
07R 148 ft / 45 m 12,617 ft / 3,846 m 68.90° 69.39° Concrete 2,543 ft / 775 m 863 ft / 263 m
25L 148 ft / 45 m 12,617 ft / 3,846 m 248.90° 249.39° Concrete 0 ft / 0 m 1,027 ft / 313 m
25R 148 ft / 45 m 9,998 ft / 3,047 m 249.00° 249.49° Asphalt 0 ft / 0 m 1,053 ft / 321 m

Approach Navaids

Runway Type Ident Frequency Range Bearing (true) Bearing (mag) Slope Elevation
25L Localiser SGN 108.30 MHz 18 nm / 33 km 248.96° 249.45° - 24 ft / 7 m (AMSL)
25L Glidescope SGN 108.30 MHz 10 nm / 19 km 248.90° 249.39° 3.00° 49 ft / 15 m (AMSL)
25L DME SGN 108.30 MHz 18 nm / 33 km - - - 33 ft / 10 m (AMSL)
25R Localiser HCM 110.50 MHz 18 nm / 33 km 248.99° 249.48° - 25 ft / 8 m (AMSL)
25R Glidescope HCM 110.50 MHz 10 nm / 19 km 249.00° 249.49° 3.00° 32 ft / 10 m (AMSL)
25R DME HCM 110.50 MHz 18 nm / 33 km - - - 33 ft / 10 m (AMSL)

Popular Alternatives